createdAt,value
2023-05-16T00:02:28.263Z,5.20
2023-05-16T00:05:02.547Z,4.87
2023-05-16T00:07:31.929Z,4.80
2023-05-16T00:10:06.492Z,5.23
2023-05-16T00:12:36.683Z,4.97
2023-05-16T00:15:13.486Z,5.33
2023-05-16T00:17:43.735Z,5.70
2023-05-16T00:20:20.491Z,5.00
2023-05-16T00:22:49.944Z,5.37
2023-05-16T00:25:17.759Z,5.70
2023-05-16T00:27:52.462Z,5.87
2023-05-16T00:30:20.508Z,5.50
2023-05-16T00:32:54.835Z,5.73
2023-05-16T00:35:22.942Z,5.57
2023-05-16T00:37:59.500Z,5.10
2023-05-16T00:40:27.628Z,5.27
2023-05-16T00:43:02.948Z,5.93
2023-05-16T00:45:37.535Z,5.13
2023-05-16T00:48:20.649Z,5.27
2023-05-16T00:50:49.420Z,5.15
2023-05-16T00:53:19.387Z,5.27
2023-05-16T00:55:55.478Z,5.37
2023-05-16T00:58:24.154Z,5.30
2023-05-16T01:01:04.527Z,4.93
2023-05-16T01:03:33.281Z,4.80
2023-05-16T01:06:07.484Z,5.13
2023-05-16T01:08:36.611Z,6.47
2023-05-16T01:11:15.616Z,5.23
2023-05-16T01:13:53.552Z,6.07
2023-05-16T01:16:34.640Z,5.60
2023-05-16T01:19:10.540Z,5.67
2023-05-16T01:21:52.488Z,5.77
2023-05-16T01:24:34.160Z,5.70
2023-05-16T01:27:13.649Z,5.53
2023-05-16T01:29:41.504Z,5.30
2023-05-16T01:32:09.493Z,5.23
2023-05-16T01:34:43.487Z,4.93
2023-05-16T01:37:18.424Z,5.00
2023-05-16T01:39:59.507Z,5.07
2023-05-16T01:42:32.554Z,4.90
2023-05-16T01:45:10.481Z,5.33
2023-05-16T01:47:49.686Z,5.27
2023-05-16T01:50:25.622Z,5.37
2023-05-16T01:53:00.500Z,5.07
2023-05-16T01:55:44.577Z,5.73
2023-05-16T01:58:15.386Z,6.00
2023-05-16T02:00:43.585Z,5.00
2023-05-16T02:03:17.617Z,5.40
2023-05-16T02:05:45.586Z,5.35
2023-05-16T02:08:21.503Z,5.10
2023-05-16T02:10:49.329Z,5.77
2023-05-16T02:13:25.506Z,6.63
2023-05-16T02:15:53.928Z,6.77
2023-05-16T02:18:30.639Z,7.73
2023-05-16T02:20:58.671Z,9.10
2023-05-16T02:23:26.683Z,10.00
2023-05-16T02:26:01.541Z,10.07
2023-05-16T02:28:30.718Z,10.83
2023-05-16T02:31:05.527Z,11.37
2023-05-16T02:33:33.435Z,13.47
2023-05-16T02:36:07.590Z,13.57
2023-05-16T02:38:35.829Z,15.80
2023-05-16T02:41:10.524Z,17.03
2023-05-16T02:43:39.652Z,17.73
2023-05-16T02:46:40.804Z,18.07
2023-05-16T02:49:08.688Z,20.07
2023-05-16T02:51:36.490Z,20.37
2023-05-16T02:54:10.647Z,21.33
2023-05-16T02:56:38.438Z,21.50
2023-05-16T02:59:14.647Z,22.07
2023-05-16T03:01:42.461Z,20.60
2023-05-16T03:04:16.498Z,21.53
2023-05-16T03:06:44.395Z,21.83
2023-05-16T03:09:18.669Z,20.63
2023-05-16T03:11:47.452Z,17.93
2023-05-16T03:14:16.635Z,18.87
2023-05-16T03:16:51.532Z,19.53
2023-05-16T03:19:19.408Z,18.67
2023-05-16T03:21:53.551Z,18.63
2023-05-16T03:24:23.078Z,19.73
2023-05-16T03:26:57.559Z,19.60
2023-05-16T03:29:26.972Z,17.80
2023-05-16T03:32:01.738Z,18.53
2023-05-16T03:34:29.663Z,19.20
2023-05-16T03:36:57.414Z,19.30
2023-05-16T03:39:31.547Z,17.43
2023-05-16T03:41:59.381Z,18.63
2023-05-16T03:44:34.558Z,18.23
2023-05-16T03:47:09.298Z,17.37
2023-05-16T03:49:43.673Z,16.40
2023-05-16T03:52:11.667Z,14.50
2023-05-16T03:54:39.476Z,14.50
2023-05-16T03:57:13.570Z,15.87
2023-05-16T03:59:43.244Z,16.17
2023-05-16T04:02:18.917Z,15.97
2023-05-16T04:04:46.925Z,15.40
2023-05-16T04:07:23.279Z,14.47
2023-05-16T04:09:52.665Z,15.00
2023-05-16T04:12:26.677Z,15.73
2023-05-16T04:14:55.782Z,15.97
2023-05-16T04:17:23.602Z,15.20
2023-05-16T04:19:57.556Z,16.57
2023-05-16T04:22:25.764Z,16.43
2023-05-16T04:24:59.553Z,16.63
2023-05-16T04:27:27.762Z,17.53
2023-05-16T04:30:03.625Z,17.87
2023-05-16T04:32:34.572Z,17.50
2023-05-16T04:35:08.615Z,18.90
2023-05-16T04:37:36.823Z,17.87
2023-05-16T04:40:06.437Z,19.10
2023-05-16T04:42:41.593Z,18.30
2023-05-16T04:45:18.714Z,18.83
2023-05-16T04:47:59.569Z,17.80
2023-05-16T04:50:27.403Z,18.03
2023-05-16T04:53:01.596Z,19.37
2023-05-16T04:55:29.755Z,17.07
2023-05-16T04:58:04.720Z,17.53
2023-05-16T05:00:33.848Z,18.00
2023-05-16T05:03:01.710Z,15.00
2023-05-16T05:05:36.559Z,14.70
2023-05-16T05:08:04.611Z,15.90
2023-05-16T05:10:38.559Z,15.43
2023-05-16T05:13:06.604Z,15.93
2023-05-16T05:15:42.647Z,14.40
2023-05-16T05:18:10.932Z,15.23
2023-05-16T05:20:39.026Z,14.30
2023-05-16T05:23:13.597Z,15.33
2023-05-16T05:25:41.846Z,14.70
2023-05-16T05:28:16.576Z,14.97
2023-05-16T05:30:46.724Z,14.33
2023-05-16T05:33:24.590Z,14.23
2023-05-16T05:35:54.077Z,13.90
2023-05-16T05:38:28.725Z,15.10
2023-05-16T05:40:56.908Z,14.10
2023-05-16T05:43:38.709Z,13.73
2023-05-16T05:46:28.588Z,12.50
2023-05-16T05:49:03.636Z,13.23
2023-05-16T05:51:31.547Z,11.60
2023-05-16T05:54:09.091Z,13.13
2023-05-16T05:56:36.964Z,13.10
2023-05-16T05:59:05.129Z,12.10
2023-05-16T06:01:40.621Z,12.17
2023-05-16T06:04:08.507Z,12.17
2023-05-16T06:06:43.640Z,11.90
2023-05-16T06:09:11.450Z,11.57
2023-05-16T06:11:45.803Z,11.50
2023-05-16T06:14:16.240Z,11.30
2023-05-16T06:16:52.782Z,12.33
2023-05-16T06:19:20.994Z,11.10
2023-05-16T06:21:48.803Z,11.87
2023-05-16T06:24:23.927Z,11.57
2023-05-16T06:26:52.473Z,10.40
2023-05-16T06:29:26.592Z,11.80
2023-05-16T06:31:55.774Z,11.23
2023-05-16T06:34:34.606Z,10.50
2023-05-16T06:37:03.668Z,10.63
2023-05-16T06:39:37.682Z,11.17
2023-05-16T06:42:05.845Z,10.17
2023-05-16T06:44:33.690Z,9.80
2023-05-16T06:47:09.650Z,9.20
2023-05-16T06:49:44.656Z,10.17
2023-05-16T06:52:18.674Z,9.10
2023-05-16T06:54:46.664Z,9.43
2023-05-16T06:57:21.733Z,9.43
2023-05-16T06:59:49.548Z,8.60
2023-05-16T07:02:26.185Z,8.23
2023-05-16T07:04:54.149Z,8.40
2023-05-16T07:07:21.969Z,8.13
2023-05-16T07:09:56.663Z,7.00
2023-05-16T07:12:24.667Z,7.97
2023-05-16T07:14:58.659Z,7.43
2023-05-16T07:17:27.862Z,8.20
2023-05-16T07:20:05.137Z,7.77
2023-05-16T07:22:33.512Z,7.97
2023-05-16T07:25:08.772Z,7.80
2023-05-16T07:27:36.592Z,8.27
2023-05-16T07:30:04.590Z,8.00
2023-05-16T07:32:40.676Z,7.10
2023-05-16T07:35:09.668Z,7.67
2023-05-16T07:37:44.647Z,7.60
2023-05-16T07:40:13.617Z,7.47
2023-05-16T07:42:47.784Z,7.13
2023-05-16T07:45:15.629Z,6.93
2023-05-16T07:48:00.745Z,8.30
2023-05-16T07:50:28.560Z,8.03
2023-05-16T07:53:03.867Z,7.93
2023-05-16T07:55:31.902Z,8.17
2023-05-16T07:57:59.784Z,7.87
2023-05-16T08:00:34.641Z,6.83
2023-05-16T08:03:04.173Z,6.40
2023-05-16T08:05:38.731Z,6.03
2023-05-16T08:08:07.026Z,6.07
2023-05-16T08:10:41.799Z,7.30
2023-05-16T08:13:09.805Z,5.97
2023-05-16T08:15:38.141Z,6.40
2023-05-16T08:18:22.219Z,5.90
2023-05-16T08:20:51.269Z,5.93
2023-05-16T08:23:26.673Z,5.32
2023-05-16T08:25:55.420Z,5.50
2023-05-16T08:28:29.650Z,5.77
2023-05-16T08:30:57.515Z,5.17
2023-05-16T08:33:34.050Z,5.70
2023-05-16T08:36:02.059Z,5.20
2023-05-16T08:38:29.915Z,5.07
2023-05-16T08:41:04.639Z,6.00
2023-05-16T08:43:33.369Z,5.77
2023-05-16T08:46:07.650Z,5.18
2023-05-16T08:48:47.007Z,4.90
2023-05-16T08:51:25.684Z,4.72
2023-05-16T08:54:00.739Z,4.93
2023-05-16T08:56:35.757Z,4.57
2023-05-16T08:59:04.285Z,4.80
2023-05-16T09:01:32.577Z,4.93
2023-05-16T09:04:09.056Z,4.78
2023-05-16T09:06:37.100Z,4.25
2023-05-16T09:09:14.707Z,4.87
2023-05-16T09:11:43.754Z,5.00
2023-05-16T09:14:18.695Z,4.43
2023-05-16T09:16:46.878Z,4.87
2023-05-16T09:19:22.874Z,4.37
2023-05-16T09:21:50.857Z,4.37
2023-05-16T09:24:18.691Z,4.27
2023-05-16T09:26:52.720Z,3.80
2023-05-16T09:29:20.617Z,4.13
2023-05-16T09:31:57.693Z,3.47
2023-05-16T09:34:26.913Z,4.32
2023-05-16T09:37:02.679Z,4.53
2023-05-16T09:39:30.494Z,4.40
2023-05-16T09:42:06.849Z,3.58
2023-05-16T09:44:50.106Z,4.37
2023-05-16T09:47:30.928Z,3.70
2023-05-16T09:50:08.765Z,3.60
2023-05-16T09:52:44.846Z,3.50
2023-05-16T09:55:12.981Z,3.93
2023-05-16T09:57:41.215Z,4.00
2023-05-16T10:00:18.737Z,3.30
2023-05-16T10:02:49.260Z,3.40
2023-05-16T10:05:25.799Z,3.70
2023-05-16T10:07:56.198Z,3.03
2023-05-16T10:10:31.710Z,2.63
2023-05-16T10:13:01.507Z,3.15
2023-05-16T10:15:36.834Z,3.43
2023-05-16T10:18:08.115Z,3.35
2023-05-16T10:20:44.008Z,3.43
2023-05-16T10:23:17.423Z,3.40
2023-05-16T10:25:52.844Z,3.93
2023-05-16T10:28:20.715Z,3.40
2023-05-16T10:30:48.940Z,4.15
2023-05-16T10:33:26.038Z,4.13
2023-05-16T10:36:03.865Z,4.93
2023-05-16T10:38:32.573Z,3.33
2023-05-16T10:41:00.457Z,3.97
2023-05-16T10:43:36.769Z,4.27
2023-05-16T10:46:09.725Z,3.70
2023-05-16T10:48:52.869Z,3.85
2023-05-16T10:51:37.793Z,3.58
2023-05-16T10:54:18.734Z,3.70
2023-05-16T10:56:57.129Z,3.78
2023-05-16T10:59:32.874Z,3.28
2023-05-16T11:02:00.731Z,3.55
2023-05-16T11:04:53.950Z,3.58
2023-05-16T11:07:25.452Z,3.47
2023-05-16T11:10:16.862Z,3.45
2023-05-16T11:12:46.313Z,4.03
2023-05-16T11:15:29.304Z,3.22
2023-05-16T11:18:08.586Z,3.40
2023-05-16T11:20:43.925Z,3.28
2023-05-16T11:23:24.677Z,3.83
2023-05-16T11:26:04.738Z,2.70
2023-05-16T11:28:33.923Z,2.60
2023-05-16T11:31:09.752Z,2.75
2023-05-16T11:33:40.295Z,3.35
2023-05-16T11:36:16.923Z,3.28
2023-05-16T11:38:48.086Z,3.00
2023-05-16T11:41:29.876Z,3.10
2023-05-16T11:43:57.744Z,3.70
2023-05-16T11:46:38.949Z,3.90
2023-05-16T11:49:14.234Z,3.88
2023-05-16T11:51:49.930Z,3.30
2023-05-16T11:54:20.868Z,4.32
2023-05-16T11:56:48.806Z,3.75
2023-05-16T11:59:23.839Z,4.30
2023-05-16T12:01:51.716Z,4.82
2023-05-16T12:04:26.848Z,4.38
2023-05-16T12:07:02.410Z,3.80
2023-05-16T12:09:37.704Z,3.50
2023-05-16T12:12:07.342Z,4.63
2023-05-16T12:14:41.777Z,4.05
2023-05-16T12:17:09.730Z,3.28
2023-05-16T12:19:37.870Z,3.92
2023-05-16T12:22:12.778Z,3.63
2023-05-16T12:24:42.267Z,4.40
2023-05-16T12:27:16.918Z,3.30
2023-05-16T12:29:48.601Z,4.38
2023-05-16T12:32:26.821Z,4.00
2023-05-16T12:34:56.218Z,3.50
2023-05-16T12:37:30.917Z,3.63
2023-05-16T12:40:04.242Z,3.75
2023-05-16T12:42:38.913Z,3.88
2023-05-16T12:45:15.072Z,4.25
2023-05-16T12:47:56.787Z,4.53
2023-05-16T12:50:31.449Z,4.15
2023-05-16T12:53:07.944Z,3.25
2023-05-16T12:55:37.118Z,3.42
2023-05-16T12:58:05.288Z,3.15
2023-05-16T13:00:40.082Z,4.00
2023-05-16T13:03:08.628Z,3.42
2023-05-16T13:05:43.903Z,3.10
2023-05-16T13:08:11.881Z,3.47
2023-05-16T13:10:48.151Z,2.88
2023-05-16T13:13:25.057Z,2.90
2023-05-16T13:16:10.771Z,3.72
2023-05-16T13:18:38.718Z,3.08
2023-05-16T13:21:14.066Z,3.72
2023-05-16T13:23:42.083Z,3.13
2023-05-16T13:26:11.758Z,3.53
2023-05-16T13:28:45.777Z,3.08
2023-05-16T13:31:13.769Z,3.05
2023-05-16T13:33:48.792Z,3.22
2023-05-16T13:36:16.723Z,3.97
2023-05-16T13:38:50.888Z,3.08
2023-05-16T13:41:20.066Z,3.83
2023-05-16T13:43:47.909Z,3.15
2023-05-16T13:46:22.815Z,3.25
2023-05-16T13:49:05.903Z,2.88
2023-05-16T13:51:33.770Z,2.95
2023-05-16T13:54:01.657Z,2.95
2023-05-16T13:56:37.791Z,3.58
2023-05-16T13:59:07.329Z,2.78
2023-05-16T14:01:42.839Z,2.67
2023-05-16T14:04:10.846Z,2.70
2023-05-16T14:06:45.907Z,3.33
2023-05-16T14:09:15.290Z,2.85
2023-05-16T14:11:44.561Z,3.00
2023-05-16T14:14:18.780Z,3.22
2023-05-16T14:16:47.369Z,2.90
2023-05-16T14:19:21.901Z,2.50
2023-05-16T14:21:49.986Z,2.60
2023-05-16T14:24:24.884Z,3.13
2023-05-16T14:26:58.325Z,2.65
2023-05-16T14:29:32.910Z,2.53
2023-05-16T14:32:00.947Z,3.65
2023-05-16T14:34:29.121Z,3.42
2023-05-16T14:37:03.848Z,2.47
2023-05-16T14:39:31.674Z,3.15
2023-05-16T14:42:08.761Z,2.60
2023-05-16T14:44:37.375Z,3.20
2023-05-16T14:47:11.808Z,2.97
2023-05-16T14:49:46.546Z,4.07
2023-05-16T14:52:21.949Z,3.58
2023-05-16T14:54:49.873Z,3.65
2023-05-16T14:57:19.030Z,3.42
2023-05-16T14:59:54.804Z,3.13
2023-05-16T15:02:22.658Z,3.67
2023-05-16T15:04:56.930Z,3.13
2023-05-16T15:07:25.391Z,3.40
2023-05-16T15:09:59.786Z,3.35
2023-05-16T15:12:29.169Z,3.10
2023-05-16T15:15:05.056Z,2.83
2023-05-16T15:17:33.231Z,3.10
2023-05-16T15:20:01.257Z,2.88
2023-05-16T15:22:35.908Z,3.38
2023-05-16T15:25:05.784Z,2.97
2023-05-16T15:27:42.134Z,2.90
2023-05-16T15:30:12.207Z,3.00
2023-05-16T15:32:46.902Z,3.95
2023-05-16T15:35:14.727Z,3.90
2023-05-16T15:37:43.677Z,3.40
2023-05-16T15:40:23.359Z,3.20
2023-05-16T15:43:01.954Z,3.57
2023-05-16T15:45:30.012Z,4.03
2023-05-16T15:48:12.099Z,3.47
2023-05-16T15:50:46.486Z,3.03
2023-05-16T15:53:21.046Z,3.60
2023-05-16T15:55:49.066Z,4.07
2023-05-16T15:58:19.649Z,3.70
2023-05-16T16:00:58.017Z,3.10
2023-05-16T16:03:26.510Z,3.30
2023-05-16T16:06:00.804Z,3.63
2023-05-16T16:08:28.698Z,2.90
2023-05-16T16:11:03.862Z,3.03
2023-05-16T16:13:33.033Z,3.10
2023-05-16T16:16:08.100Z,3.53
2023-05-16T16:18:36.502Z,3.53
2023-05-16T16:21:04.628Z,3.63
2023-05-16T16:23:45.894Z,3.00
2023-05-16T16:26:14.113Z,3.23
2023-05-16T16:28:49.860Z,3.30
2023-05-16T16:31:17.984Z,4.37
2023-05-16T16:33:55.782Z,4.23
2023-05-16T16:36:23.637Z,3.97
2023-05-16T16:38:57.987Z,2.72
2023-05-16T16:41:25.904Z,3.40
2023-05-16T16:43:55.047Z,3.77
2023-05-16T16:46:29.892Z,3.77
2023-05-16T16:49:04.506Z,3.37
2023-05-16T16:51:41.075Z,3.87
2023-05-16T16:54:08.901Z,3.23
2023-05-16T16:56:42.950Z,3.60
2023-05-16T16:59:12.487Z,4.03
2023-05-16T17:01:40.689Z,3.33
2023-05-16T17:04:14.828Z,3.20
2023-05-16T17:06:42.872Z,3.60
2023-05-16T17:09:20.841Z,3.23
2023-05-16T17:11:48.876Z,2.83
2023-05-16T17:14:24.825Z,3.20
2023-05-16T17:16:53.127Z,3.50
2023-05-16T17:19:28.183Z,3.60
2023-05-16T17:21:56.466Z,2.40
2023-05-16T17:24:24.705Z,3.37
2023-05-16T17:26:59.802Z,3.67
2023-05-16T17:29:29.258Z,3.13
2023-05-16T17:32:03.969Z,3.63
2023-05-16T17:34:31.868Z,3.43
2023-05-16T17:37:06.879Z,3.40
2023-05-16T17:39:34.864Z,4.37
2023-05-16T17:42:09.024Z,3.63
2023-05-16T17:44:39.478Z,3.50
2023-05-16T17:47:21.009Z,3.37
2023-05-16T17:49:55.656Z,3.30
2023-05-16T17:52:29.975Z,3.43
2023-05-16T17:54:57.920Z,3.17
2023-05-16T17:57:26.484Z,3.27
2023-05-16T18:00:01.871Z,3.40
2023-05-16T18:02:29.942Z,2.90
2023-05-16T18:05:04.878Z,2.90
2023-05-16T18:07:32.895Z,3.20
2023-05-16T18:10:07.082Z,1.67
2023-05-16T18:12:35.913Z,2.40
2023-05-16T18:15:11.974Z,2.10
2023-05-16T18:17:39.914Z,2.53
2023-05-16T18:20:10.745Z,2.80
2023-05-16T18:22:46.154Z,3.43
2023-05-16T18:25:13.969Z,4.63
2023-05-16T18:27:48.844Z,3.33
2023-05-16T18:30:18.031Z,3.57
2023-05-16T18:32:52.982Z,3.70
2023-05-16T18:35:20.830Z,4.30
2023-05-16T18:37:49.227Z,3.50
2023-05-16T18:40:24.901Z,3.97
2023-05-16T18:42:53.021Z,4.30
2023-05-16T18:45:30.206Z,3.77
2023-05-16T18:48:23.302Z,4.83
2023-05-16T18:51:10.179Z,3.80
2023-05-16T18:53:42.934Z,4.40
2023-05-16T18:56:18.085Z,3.83
2023-05-16T18:58:46.615Z,4.57
2023-05-16T19:01:16.083Z,4.03
2023-05-16T19:03:51.207Z,4.13
2023-05-16T19:06:19.257Z,4.07
2023-05-16T19:08:53.985Z,4.73
2023-05-16T19:11:22.478Z,4.87
2023-05-16T19:13:57.025Z,5.00
2023-05-16T19:16:26.475Z,4.27
2023-05-16T19:18:54.475Z,6.50
2023-05-16T19:21:28.868Z,5.17
2023-05-16T19:23:57.134Z,5.47
2023-05-16T19:26:31.854Z,5.40
2023-05-16T19:29:00.581Z,5.43
2023-05-16T19:31:38.856Z,6.20
2023-05-16T19:34:06.858Z,6.00
2023-05-16T19:36:42.063Z,6.47
2023-05-16T19:39:10.005Z,5.30
2023-05-16T19:41:37.808Z,6.90
2023-05-16T19:44:11.888Z,6.37
2023-05-16T19:46:41.397Z,5.90
2023-05-16T19:49:19.549Z,5.80
2023-05-16T19:51:55.168Z,5.37
2023-05-16T19:54:29.856Z,4.97
2023-05-16T19:56:57.725Z,5.10
2023-05-16T19:59:32.082Z,5.40
2023-05-16T20:02:01.212Z,6.00
2023-05-16T20:04:29.062Z,6.17
2023-05-16T20:07:04.027Z,5.80
2023-05-16T20:09:32.214Z,6.53
2023-05-16T20:12:06.839Z,5.43
2023-05-16T20:14:34.765Z,7.17
2023-05-16T20:17:10.842Z,5.60
2023-05-16T20:19:43.775Z,5.50
2023-05-16T20:22:18.937Z,6.40
2023-05-16T20:24:46.978Z,5.63
2023-05-16T20:27:15.157Z,6.10
2023-05-16T20:29:49.842Z,6.00
2023-05-16T20:32:19.725Z,5.63
2023-05-16T20:34:53.935Z,5.23
2023-05-16T20:37:26.464Z,5.17
2023-05-16T20:40:01.860Z,4.53
2023-05-16T20:42:29.717Z,4.50
2023-05-16T20:45:04.067Z,4.17
2023-05-16T20:47:33.265Z,4.83
2023-05-16T20:50:16.019Z,5.30
2023-05-16T20:52:44.132Z,4.23
2023-05-16T20:55:11.946Z,4.43
2023-05-16T20:57:45.880Z,4.47
2023-05-16T21:00:14.662Z,5.07
2023-05-16T21:02:49.914Z,5.23
2023-05-16T21:05:24.834Z,6.13
2023-05-16T21:07:59.900Z,5.03
2023-05-16T21:10:27.820Z,6.27
2023-05-16T21:12:55.680Z,7.07
2023-05-16T21:15:30.226Z,6.87
2023-05-16T21:17:59.677Z,6.93
2023-05-16T21:20:36.928Z,7.03
2023-05-16T21:23:04.817Z,8.10
2023-05-16T21:25:39.066Z,7.20
2023-05-16T21:28:06.897Z,7.80
2023-05-16T21:30:34.803Z,7.53
2023-05-16T21:33:11.012Z,8.23
2023-05-16T21:35:38.926Z,8.10
2023-05-16T21:38:12.932Z,8.40
2023-05-16T21:40:40.809Z,9.07
2023-05-16T21:43:15.901Z,8.40
2023-05-16T21:45:43.729Z,7.50
2023-05-16T21:48:20.099Z,8.30
2023-05-16T21:51:08.040Z,8.73
2023-05-16T21:53:43.058Z,7.83
2023-05-16T21:56:11.097Z,8.87
2023-05-16T21:58:39.030Z,8.37
2023-05-16T22:01:13.948Z,9.03
2023-05-16T22:03:43.228Z,8.10
2023-05-16T22:06:17.966Z,8.17
2023-05-16T22:08:45.774Z,9.67
2023-05-16T22:11:19.938Z,9.17
2023-05-16T22:13:47.763Z,8.47
2023-05-16T22:16:21.953Z,8.97
2023-05-16T22:18:51.225Z,8.70
2023-05-16T22:21:32.108Z,8.87
2023-05-16T22:23:59.911Z,9.67
2023-05-16T22:26:27.892Z,8.47
2023-05-16T22:29:01.939Z,9.40
2023-05-16T22:31:29.898Z,9.57
2023-05-16T22:34:05.911Z,8.83
2023-05-16T22:36:33.889Z,9.33
2023-05-16T22:39:07.929Z,8.70
2023-05-16T22:41:35.804Z,9.33
2023-05-16T22:44:10.054Z,8.37
2023-05-16T22:46:38.075Z,9.07
2023-05-16T22:49:07.263Z,9.13
2023-05-16T22:51:48.963Z,9.27
2023-05-16T22:54:17.385Z,8.73
2023-05-16T22:56:51.931Z,8.20
2023-05-16T22:59:19.818Z,8.90
2023-05-16T23:01:54.039Z,8.17
2023-05-16T23:04:23.190Z,8.37
2023-05-16T23:06:51.127Z,8.37
2023-05-16T23:09:25.959Z,8.07
2023-05-16T23:11:53.900Z,7.53
2023-05-16T23:14:27.993Z,6.73
2023-05-16T23:16:58.242Z,6.00
2023-05-16T23:19:34.220Z,5.43
2023-05-16T23:22:03.423Z,5.07
2023-05-16T23:24:38.071Z,5.27
2023-05-16T23:27:06.227Z,4.60
2023-05-16T23:29:34.071Z,5.73
2023-05-16T23:32:07.917Z,5.43
2023-05-16T23:34:37.079Z,4.80
2023-05-16T23:37:11.961Z,4.60
2023-05-16T23:39:39.789Z,4.90
2023-05-16T23:42:13.918Z,4.40
2023-05-16T23:44:41.892Z,5.23
2023-05-16T23:47:17.106Z,4.67
2023-05-16T23:50:05.901Z,4.57
2023-05-16T23:52:41.039Z,4.33
2023-05-16T23:55:09.759Z,4.40
2023-05-16T23:57:38.567Z,4.00
